Time;durP1;ratioP1;P1;durP2;ratioP2;P2;SDS_P1;SDS_P2;PMS_P1;PMS_P2;Temp;Humidity;BMP_temperature;BMP_pressure;BME280_temperature;BME280_humidity;BME280_pressure;Samples;Min_cycle;Max_cycle;Signal;HPM_P1;HPM_P2
2023/01/20 00:01:19;;;;;;;46.45;25.25;;;-2.90;99.90;;;;;;6245644;23;20099;-81
2023/01/20 00:04:06;;;;;;;42.60;24.52;;;-2.80;99.90;;;;;;6246200;23;20398;-81
2023/01/20 00:06:55;;;;;;;43.50;25.98;;;-2.70;99.90;;;;;;6226164;22;20020;-82
2023/01/20 00:09:42;;;;;;;50.72;26.85;;;-2.60;99.90;;;;;;6254218;22;20024;-82
2023/01/20 00:12:30;;;;;;;48.28;26.25;;;-2.50;99.90;;;;;;6251680;22;20035;-82
2023/01/20 00:15:18;;;;;;;59.83;28.92;;;-2.50;99.90;;;;;;6248823;22;20035;-82
2023/01/20 00:18:05;;;;;;;54.03;30.15;;;-2.50;99.90;;;;;;6255093;23;20083;-80
2023/01/20 00:20:57;;;;;;;63.28;34.08;;;-2.40;99.90;;;;;;6255101;23;20051;-81
2023/01/20 00:23:46;;;;;;;50.60;27.53;;;-2.40;99.90;;;;;;6236797;23;20059;-81
2023/01/20 00:26:33;;;;;;;47.75;26.73;;;-2.40;99.90;;;;;;6234499;23;20240;-81
2023/01/20 00:29:20;;;;;;;57.67;31.02;;;-2.40;99.90;;;;;;6249502;22;20051;-81
2023/01/20 00:32:07;;;;;;;59.30;32.40;;;-2.40;99.90;;;;;;6226846;23;20025;-81
2023/01/20 00:34:55;;;;;;;55.45;30.95;;;-2.40;99.90;;;;;;6246087;23;20446;-81
2023/01/20 00:37:42;;;;;;;51.13;29.35;;;-2.40;99.90;;;;;;6242544;23;20024;-81
2023/01/20 00:40:30;;;;;;;53.63;28.42;;;-2.40;99.90;;;;;;6224613;23;20078;-81
2023/01/20 00:43:17;;;;;;;51.95;28.50;;;-2.50;99.90;;;;;;6223927;23;20024;-80
2023/01/20 00:46:05;;;;;;;49.92;28.05;;;-2.60;99.90;;;;;;6245920;22;20081;-81
2023/01/20 00:48:53;;;;;;;50.80;28.00;;;-2.60;99.90;;;;;;6245701;23;20024;-81
2023/01/20 00:51:40;;;;;;;52.38;27.15;;;-2.60;99.90;;;;;;6221434;23;20024;-82
2023/01/20 00:54:27;;;;;;;51.85;27.02;;;-2.60;99.90;;;;;;6245662;23;20028;-80
2023/01/20 00:57:14;;;;;;;49.50;27.15;;;-2.60;99.90;;;;;;6252674;23;20435;-80
2023/01/20 01:00:03;;;;;;;46.20;26.30;;;-2.60;99.90;;;;;;6220666;23;20086;-81
2023/01/20 01:02:50;;;;;;;48.03;26.33;;;-2.60;99.90;;;;;;6244456;23;20035;-81
2023/01/20 01:05:41;;;;;;;50.58;26.75;;;-2.50;99.90;;;;;;6222838;23;20035;-81
2023/01/20 01:08:30;;;;;;;48.28;26.65;;;-2.50;99.90;;;;;;6224584;22;20028;-83
2023/01/20 01:11:17;;;;;;;47.25;27.15;;;-2.50;99.90;;;;;;6225216;23;20032;-82
2023/01/20 01:14:07;;;;;;;44.58;25.05;;;-2.40;99.90;;;;;;6225250;23;20032;-80
2023/01/20 01:16:54;;;;;;;46.72;26.30;;;-2.40;99.90;;;;;;6247346;23;20035;-81
2023/01/20 01:19:43;;;;;;;41.80;24.80;;;-2.40;99.90;;;;;;6223878;23;20056;-81
2023/01/20 01:22:31;;;;;;;42.55;23.88;;;-2.40;99.90;;;;;;6225506;23;20036;-81
2023/01/20 01:25:19;;;;;;;49.60;26.30;;;-2.40;99.90;;;;;;6247824;22;20327;-81
2023/01/20 01:28:06;;;;;;;45.17;26.15;;;-2.40;99.90;;;;;;6248321;22;20127;-80
2023/01/20 01:30:53;;;;;;;41.22;24.70;;;-2.40;99.90;;;;;;6224796;23;20130;-80
2023/01/20 01:33:41;;;;;;;44.95;25.70;;;-2.40;99.90;;;;;;6246254;23;20102;-82
2023/01/20 01:36:28;;;;;;;51.70;27.60;;;-2.40;99.90;;;;;;6225932;23;20024;-82
2023/01/20 01:39:15;;;;;;;44.22;25.17;;;-2.40;99.90;;;;;;6247728;22;20028;-82
2023/01/20 01:42:08;;;;;;;44.30;25.70;;;-2.40;99.90;;;;;;6246871;23;20031;-82
2023/01/20 01:45:11;;;;;;;44.20;24.83;;;-2.40;99.90;;;;;;6232994;23;20024;-82
2023/01/20 01:48:10;;;;;;;49.17;25.52;;;-2.50;99.90;;;;;;6248084;22;20024;-81
2023/01/20 01:51:04;;;;;;;42.35;24.55;;;-2.50;99.90;;;;;;6246462;23;20024;-81
2023/01/20 01:54:03;;;;;;;40.47;23.75;;;-2.50;99.90;;;;;;6245844;23;20024;-81
2023/01/20 01:56:50;;;;;;;45.95;23.98;;;-2.50;99.90;;;;;;6248398;22;20024;-81
2023/01/20 01:59:38;;;;;;;39.30;22.65;;;-2.50;99.90;;;;;;6247896;23;20039;-81
2023/01/20 02:02:25;;;;;;;38.88;23.75;;;-2.60;99.90;;;;;;6246538;23;20085;-81
2023/01/20 02:05:16;;;;;;;40.00;23.13;;;-2.60;99.90;;;;;;6247044;23;20343;-80
2023/01/20 02:08:08;;;;;;;41.17;23.60;;;-2.50;99.90;;;;;;6225433;23;20043;-81
2023/01/20 02:10:57;;;;;;;41.38;23.50;;;-2.50;99.90;;;;;;6204762;23;20020;-80
2023/01/20 02:13:47;;;;;;;29.47;17.57;;;-2.50;99.90;;;;;;6227136;23;20024;-81
2023/01/20 02:17:07;;;;;;;38.20;22.30;;;-2.50;99.90;;;;;;6227867;23;20079;-81
2023/01/20 02:20:13;;;;;;;37.80;21.63;;;-2.50;99.90;;;;;;6248485;23;20046;-81
2023/01/20 02:23:10;;;;;;;51.10;23.25;;;-2.60;99.90;;;;;;6227578;23;20111;-80
2023/01/20 02:26:34;;;;;;;39.15;23.48;;;-2.60;99.90;;;;;;6230027;22;20024;-81
2023/01/20 02:29:54;;;;;;;42.00;24.50;;;-2.60;99.90;;;;;;6268778;23;20028;-81
2023/01/20 02:33:08;;;;;;;41.45;24.45;;;-2.50;99.90;;;;;;6267573;23;20028;-80
2023/01/20 02:36:05;;;;;;;38.08;22.70;;;-2.50;99.90;;;;;;6265827;22;20038;-82
2023/01/20 02:39:04;;;;;;;46.00;23.42;;;-2.50;99.90;;;;;;6261328;23;20024;-80
2023/01/20 02:42:07;;;;;;;40.25;23.45;;;-2.60;99.90;;;;;;6240335;23;20039;-80
2023/01/20 02:45:07;;;;;;;38.80;24.23;;;-2.60;99.90;;;;;;6259186;23;20024;-83
2023/01/20 02:48:02;;;;;;;39.90;22.92;;;-2.60;99.90;;;;;;6260092;22;20023;-82
2023/01/20 02:51:07;;;;;;;45.17;23.85;;;-2.60;99.90;;;;;;6261001;22;20166;-79
2023/01/20 02:54:05;;;;;;;42.95;24.02;;;-2.70;99.90;;;;;;6259482;23;20020;-82
2023/01/20 02:56:55;;;;;;;48.40;25.17;;;-2.80;99.90;;;;;;6259145;23;20047;-81
2023/01/20 02:59:49;;;;;;;60.33;28.45;;;-2.90;99.90;;;;;;6259182;23;20039;-83
2023/01/20 03:02:44;;;;;;;47.88;25.15;;;-2.90;99.90;;;;;;6260358;22;20062;-80
2023/01/20 03:05:36;;;;;;;44.90;24.58;;;-2.90;99.90;;;;;;6256178;23;20024;-81
2023/01/20 03:08:25;;;;;;;;;;;-3.00;99.90;;;;;;6236106;23;20028;-81
2023/01/20 03:11:15;;;;;;;36.05;21.40;;;-2.90;99.90;;;;;;6255730;23;19942;-80
2023/01/20 03:14:10;;;;;;;40.92;22.98;;;-2.80;99.90;;;;;;6226701;23;20084;-82
2023/01/20 03:16:57;;;;;;;39.00;22.38;;;-2.70;99.90;;;;;;6226282;23;20028;-82
2023/01/20 03:19:47;;;;;;;45.45;23.50;;;-2.70;99.90;;;;;;6256102;22;20035;-83
2023/01/20 03:22:34;;;;;;;36.85;21.08;;;-2.70;99.90;;;;;;6250740;23;20103;-82
2023/01/20 03:25:22;;;;;;;38.20;21.55;;;-2.80;99.90;;;;;;6224160;23;20169;-81
2023/01/20 03:28:09;;;;;;;37.85;22.02;;;-2.80;99.90;;;;;;6223595;23;20024;-82
2023/01/20 03:31:04;;;;;;;46.72;22.92;;;-2.80;99.90;;;;;;6247371;22;20020;-82
2023/01/20 03:33:55;;;;;;;40.65;23.95;;;-2.80;99.90;;;;;;6223559;23;20032;-81
2023/01/20 03:36:44;;;;;;;42.15;23.60;;;-2.80;99.90;;;;;;6246952;22;20024;-81
2023/01/20 03:39:32;;;;;;;41.60;23.60;;;-2.70;99.90;;;;;;6245886;23;20024;-82
2023/01/20 03:42:30;;;;;;;39.70;21.90;;;-2.70;99.90;;;;;;6245399;23;20024;-81
2023/01/20 03:45:27;;;;;;;36.35;22.13;;;-2.70;99.90;;;;;;6223718;23;20050;-83
2023/01/20 03:48:34;;;;;;;45.78;24.73;;;-2.60;99.90;;;;;;6245038;23;20032;-83
2023/01/20 03:51:33;;;;;;;43.22;23.52;;;-2.50;99.90;;;;;;6245509;23;20031;-82
2023/01/20 03:54:30;;;;;;;41.30;23.42;;;-2.50;99.90;;;;;;6223601;23;20024;-80
2023/01/20 03:57:21;;;;;;;43.90;24.15;;;-2.40;99.90;;;;;;6246460;22;20110;-80
2023/01/20 04:00:10;;;;;;;41.45;23.45;;;-2.40;99.90;;;;;;6247303;22;20042;-82
2023/01/20 04:02:59;;;;;;;47.13;25.38;;;-2.30;99.90;;;;;;6244618;23;20107;-80
2023/01/20 04:05:50;;;;;;;42.92;25.75;;;-2.30;99.90;;;;;;6248624;23;20028;-80
2023/01/20 04:08:44;;;;;;;45.58;26.58;;;-2.30;99.90;;;;;;6248188;22;20056;-82
2023/01/20 04:11:32;;;;;;;37.80;23.17;;;-2.20;99.90;;;;;;6245689;23;20533;-80
2023/01/20 04:14:19;;;;;;;36.97;23.67;;;-2.20;99.90;;;;;;6246840;22;20028;-81
2023/01/20 04:17:09;;;;;;;38.88;22.27;;;-2.10;99.90;;;;;;6247073;22;20020;-79
2023/01/20 04:20:03;;;;;;;36.45;23.20;;;-2.10;99.90;;;;;;6246074;23;20028;-80
2023/01/20 04:22:55;;;;;;;35.92;21.50;;;-2.10;99.90;;;;;;6246571;23;20082;-80
2023/01/20 04:25:48;;;;;;;36.00;20.45;;;-2.10;99.90;;;;;;6247220;23;20706;-81
2023/01/20 04:28:36;;;;;;;33.75;20.05;;;-2.10;99.90;;;;;;6246632;23;20038;-81
2023/01/20 04:31:23;;;;;;;31.35;18.98;;;-2.10;99.90;;;;;;6249533;23;20016;-81
2023/01/20 04:34:17;;;;;;;30.88;18.15;;;-2.20;99.90;;;;;;6247293;23;20016;-83
2023/01/20 04:37:04;;;;;;;30.98;17.45;;;-2.20;99.90;;;;;;6245673;23;20024;-86
2023/01/20 04:39:52;;;;;;;27.27;17.38;;;-2.10;99.90;;;;;;6246454;23;20090;-87
2023/01/20 04:42:39;;;;;;;28.30;17.52;;;-2.10;99.90;;;;;;6247533;23;20112;-86
2023/01/20 04:45:26;;;;;;;28.67;16.67;;;-2.10;99.90;;;;;;6228029;23;20103;-87
2023/01/20 04:48:13;;;;;;;26.02;16.88;;;-2.20;99.90;;;;;;6249081;23;20034;-87
2023/01/20 04:51:04;;;;;;;33.55;16.98;;;-2.20;99.90;;;;;;6228025;23;20020;-83
2023/01/20 04:53:56;;;;;;;33.17;16.80;;;-2.30;99.90;;;;;;6233120;23;20100;-84
2023/01/20 04:56:43;;;;;;;27.85;16.40;;;-2.30;99.90;;;;;;6263517;22;20020;-85
2023/01/20 04:59:30;;;;;;;28.35;16.38;;;-2.30;99.90;;;;;;6260209;22;20035;-86
2023/01/20 05:06:32;;;;;;;23.58;15.48;;;-2.30;99.90;;;;;;6161217;23;20405;-86
2023/01/20 05:09:19;;;;;;;28.92;16.05;;;-2.30;99.90;;;;;;6176096;23;20024;-84
2023/01/20 05:12:06;;;;;;;27.13;16.83;;;-2.30;99.90;;;;;;6248259;23;20050;-85
2023/01/20 05:14:55;;;;;;;31.27;17.17;;;-2.30;99.90;;;;;;6253288;22;20030;-86
2023/01/20 05:17:42;;;;;;;25.98;16.90;;;-2.30;99.90;;;;;;6238957;23;20467;-85
2023/01/20 05:20:30;;;;;;;28.15;17.60;;;-2.30;99.90;;;;;;6257796;22;20095;-84
2023/01/20 05:23:17;;;;;;;31.33;18.17;;;-2.30;99.90;;;;;;6251275;23;20051;-85
2023/01/20 05:26:07;;;;;;;34.10;18.35;;;-2.30;99.90;;;;;;6247727;23;20820;-84
2023/01/20 05:28:54;;;;;;;28.92;17.70;;;-2.30;99.90;;;;;;6228034;23;20079;-86
2023/01/20 05:31:44;;;;;;;32.63;18.20;;;-2.30;99.90;;;;;;6250476;22;20105;-86
2023/01/20 05:34:31;;;;;;;34.95;19.50;;;-2.30;99.90;;;;;;6226894;23;20168;-83
2023/01/20 05:37:18;;;;;;;35.13;20.23;;;-2.30;99.90;;;;;;6229893;22;20035;-85
2023/01/20 05:40:06;;;;;;;38.70;21.25;;;-2.30;99.90;;;;;;6251849;22;20028;-86
2023/01/20 05:42:55;;;;;;;36.33;21.10;;;-2.40;99.90;;;;;;6249366;23;20055;-84
2023/01/20 05:45:42;;;;;;;32.20;18.45;;;-2.40;99.90;;;;;;6249813;23;20051;-86
2023/01/20 05:48:32;;;;;;;28.30;17.35;;;-2.40;99.90;;;;;;6247829;23;20036;-85
2023/01/20 05:51:22;;;;;;;27.67;16.85;;;-2.50;99.90;;;;;;6250901;22;20054;-83
2023/01/20 05:54:09;;;;;;;30.05;17.10;;;-2.50;99.90;;;;;;6250758;22;20394;-85
2023/01/20 05:56:56;;;;;;;33.50;17.65;;;-2.50;99.90;;;;;;6248192;23;20028;-87
2023/01/20 05:59:46;;;;;;;27.45;16.10;;;-2.50;99.90;;;;;;6250120;22;20031;-90
2023/01/20 06:02:33;;;;;;;25.92;16.83;;;-2.60;99.90;;;;;;6249292;22;20103;-88
2023/01/20 06:05:21;;;;;;;26.55;15.60;;;-2.50;99.90;;;;;;6241302;22;20024;-87
2023/01/20 06:08:10;;;;;;;29.83;15.75;;;-2.50;99.90;;;;;;6258432;23;20020;-87
2023/01/20 06:11:04;;;;;;;30.73;17.77;;;-2.50;99.90;;;;;;6253813;22;20367;-90
2023/01/20 06:13:51;;;;;;;23.30;15.57;;;-2.50;99.90;;;;;;6244072;22;20028;-85
2023/01/20 07:15:29;;;;;;;;;;;;;;;;;;;;;
2023/01/20 07:40:17;;;;;;;;;;;;;;;;;;;;;
2023/01/20 14:19:58;;;;;;;14.52;4.85;;;2.00;99.90;;;;;;6245495;22;20024;-90
2023/01/20 14:22:46;;;;;;;6.95;4.35;;;2.10;99.90;;;;;;6217674;23;20028;-86
2023/01/20 14:25:34;;;;;;;6.38;3.80;;;2.40;99.90;;;;;;6216822;23;20107;-88
2023/01/20 14:28:43;;;;;;;17.80;6.95;;;2.80;99.90;;;;;;6203095;23;20060;-89
2023/01/20 14:31:39;;;;;;;8.35;4.30;;;3.10;99.90;;;;;;6217150;23;20028;-90
2023/01/20 14:34:31;;;;;;;13.77;5.38;;;2.70;99.90;;;;;;6196428;23;20025;-89
2023/01/20 14:37:37;;;;;;;10.80;5.65;;;2.60;99.90;;;;;;6217036;23;20391;-88
2023/01/20 14:40:34;;;;;;;11.52;4.78;;;2.40;99.90;;;;;;6216088;23;20039;-87
2023/01/20 14:43:21;;;;;;;9.43;4.85;;;2.00;99.90;;;;;;6195847;23;20065;-88
2023/01/20 14:46:10;;;;;;;10.25;5.53;;;1.80;99.90;;;;;;6195737;23;20400;-89
2023/01/20 14:48:58;;;;;;;12.18;5.50;;;1.90;99.90;;;;;;6196961;23;20036;-90
2023/01/20 14:51:48;;;;;;;9.75;5.40;;;1.80;99.90;;;;;;6215307;23;20025;-88
2023/01/20 14:54:45;;;;;;;10.77;5.93;;;1.80;99.90;;;;;;6196960;23;20036;-87
2023/01/20 14:57:39;;;;;;;17.40;5.38;;;1.80;99.90;;;;;;6217452;23;20029;-89
2023/01/20 15:00:31;;;;;;;10.20;5.60;;;1.70;99.90;;;;;;6197141;23;20021;-89
2023/01/20 15:03:27;;;;;;;11.27;5.45;;;1.70;99.90;;;;;;6216125;23;20328;-90
2023/01/20 15:06:21;;;;;;;9.93;5.93;;;1.60;99.90;;;;;;6216215;23;20391;-90
2023/01/20 15:10:00;;;;;;;13.68;6.45;;;1.40;99.90;;;;;;6219364;22;20025;-89
2023/01/20 15:12:54;;;;;;;15.80;7.40;;;1.20;99.90;;;;;;6077448;23;20026;-90
2023/01/20 15:15:42;;;;;;;20.27;7.72;;;0.90;99.90;;;;;;6098148;23;20496;-89
2023/01/20 15:18:31;;;;;;;20.13;7.70;;;0.70;99.90;;;;;;6175353;23;20029;-89
2023/01/20 15:21:26;;;;;;;12.48;7.63;;;0.60;99.90;;;;;;6216644;23;20028;-88
2023/01/20 15:24:21;;;;;;;10.77;6.47;;;0.50;99.90;;;;;;6216878;23;20327;-89
2023/01/20 15:27:23;;;;;;;13.00;7.65;;;0.40;99.90;;;;;;6197208;23;20171;-86
2023/01/20 15:30:14;;;;;;;14.33;7.07;;;0.50;99.90;;;;;;6218396;23;20424;-86
2023/01/20 15:33:02;;;;;;;350.92;159.32;;;0.70;99.90;;;;;;6217147;23;20021;-90
2023/01/20 15:35:55;;;;;;;40.88;17.83;;;0.90;99.90;;;;;;6218300;23;20116;-88
2023/01/20 15:38:47;;;;;;;11.70;6.47;;;1.00;99.90;;;;;;6197221;23;20170;-88
2023/01/20 15:41:34;;;;;;;11.63;5.43;;;0.80;99.90;;;;;;6198011;23;20028;-87
2023/01/20 15:44:23;;;;;;;11.15;7.43;;;0.60;99.90;;;;;;6218559;23;20032;-86
2023/01/20 15:47:28;;;;;;;10.25;5.80;;;0.40;99.90;;;;;;6222221;23;20028;-89
2023/01/20 15:50:25;;;;;;;12.95;7.57;;;0.30;99.90;;;;;;6205511;23;20060;-86
2023/01/20 15:53:13;;;;;;;18.92;10.18;;;0.10;99.90;;;;;;6222362;23;20083;-87
2023/01/20 15:56:01;;;;;;;15.32;9.43;;;0.00;99.90;;;;;;6230200;23;20040;-86
2023/01/20 15:59:45;;;;;;;16.50;9.98;;;-0.20;99.90;;;;;;6201183;23;20035;-87
2023/01/20 16:14:50;;;;;;;20.08;10.00;;;-1.20;99.90;;;;;;6127381;23;20508;-88
2023/01/20 16:17:37;;;;;;;17.02;9.93;;;-1.20;99.90;;;;;;6172363;23;20048;-87
2023/01/20 16:20:25;;;;;;;17.35;10.48;;;-1.30;99.90;;;;;;6214984;23;20025;-86
2023/01/20 16:23:15;;;;;;;19.98;11.10;;;-1.50;99.90;;;;;;6219341;23;20032;-88
2023/01/20 16:26:27;;;;;;;18.08;11.48;;;-1.60;1.00;;;;;;6218800;23;20028;-88
2023/01/20 16:29:18;;;;;;;18.73;11.05;;;-1.70;1.00;;;;;;6218767;23;20376;-87
2023/01/20 16:32:06;;;;;;;21.80;11.63;;;-1.90;1.00;;;;;;6215326;23;20385;-88
2023/01/20 16:34:59;;;;;;;38.65;19.08;;;-2.00;1.00;;;;;;6217551;23;20028;-88
2023/01/20 16:37:51;;;;;;;33.30;14.27;;;-1.90;1.00;;;;;;6217440;23;20651;-88
2023/01/20 16:41:23;;;;;;;23.10;11.98;;;-1.90;1.00;;;;;;6218176;23;20107;-89
2023/01/20 16:44:10;;;;;;;29.95;18.48;;;-1.80;1.00;;;;;;6215908;23;20116;-87
2023/01/20 16:46:59;;;;;;;38.45;25.58;;;-1.60;1.00;;;;;;6216848;23;20308;-86
2023/01/20 16:49:46;;;;;;;31.17;17.23;;;-1.60;1.00;;;;;;6215568;23;20103;-87
2023/01/20 16:52:33;;;;;;;18.95;11.70;;;-1.80;1.00;;;;;;6214592;23;20367;-88
2023/01/20 16:55:22;;;;;;;19.30;10.75;;;-1.90;1.00;;;;;;6216147;23;20339;-89
2023/01/20 16:58:11;;;;;;;17.15;8.93;;;-2.00;1.00;;;;;;6215495;23;20032;-88
2023/01/20 17:00:58;;;;;;;13.52;8.27;;;-2.10;1.00;;;;;;6217285;23;20021;-88
2023/01/20 17:03:50;;;;;;;14.57;8.35;;;-2.10;1.00;;;;;;6216133;23;20035;-88
2023/01/20 17:06:37;;;;;;;17.30;9.10;;;-2.10;1.00;;;;;;6216861;23;20025;-87
2023/01/20 17:09:24;;;;;;;17.80;8.60;;;-2.10;1.00;;;;;;6220154;23;20036;-88
2023/01/20 17:13:12;;;;;;;14.60;7.93;;;-2.20;10.80;;;;;;6193904;23;20039;-88
2023/01/20 17:16:00;;;;;;;13.88;8.27;;;-2.10;27.70;;;;;;6124673;23;20085;-89
2023/01/20 17:18:49;;;;;;;17.63;7.95;;;-1.80;42.20;;;;;;6107862;23;20034;-86
2023/01/20 17:21:38;;;;;;;15.65;8.70;;;-1.70;39.00;;;;;;6216185;23;20024;-90
2023/01/20 17:24:25;;;;;;;13.15;7.38;;;-1.70;24.40;;;;;;6217806;23;20020;-90
2023/01/20 17:27:12;;;;;;;13.27;8.35;;;-1.70;12.60;;;;;;6216794;23;20029;-88
2023/01/20 17:30:00;;;;;;;10.43;7.35;;;-1.80;1.00;;;;;;6216375;23;20424;-87
2023/01/20 17:32:48;;;;;;;16.10;8.75;;;-1.80;1.00;;;;;;6216761;23;20104;-89
2023/01/20 17:35:39;;;;;;;13.70;8.90;;;-1.80;1.00;;;;;;6216486;23;20402;-87
2023/01/20 17:38:27;;;;;;;16.95;9.07;;;-1.90;1.00;;;;;;6216218;23;20025;-88
2023/01/20 17:41:15;;;;;;;12.55;6.78;;;-2.00;1.00;;;;;;6216600;23;20096;-88
2023/01/20 17:44:04;;;;;;;13.18;7.88;;;-2.10;1.00;;;;;;6215803;23;20052;-86
2023/01/20 17:46:51;;;;;;;15.35;9.00;;;-2.10;1.00;;;;;;6221387;23;20084;-87
2023/01/20 17:49:39;;;;;;;17.05;8.73;;;-2.10;1.00;;;;;;6223043;23;20029;-88
2023/01/20 17:52:27;;;;;;;19.40;8.90;;;-2.10;1.00;;;;;;6226711;23;20072;-89
2023/01/20 17:55:20;;;;;;;15.48;9.60;;;-2.00;1.00;;;;;;6230282;23;20025;-87
2023/01/20 17:58:09;;;;;;;15.70;8.40;;;-2.00;1.00;;;;;;6224837;23;20024;-87
2023/01/20 18:00:57;;;;;;;21.58;8.95;;;-2.10;1.00;;;;;;6227747;23;20056;-88
2023/01/20 18:03:45;;;;;;;14.50;8.85;;;-2.30;1.00;;;;;;6224146;23;20434;-86
2023/01/20 18:06:34;;;;;;;13.63;8.68;;;-2.40;1.00;;;;;;6225526;23;20055;-84
2023/01/20 18:09:21;;;;;;;14.77;8.60;;;-2.40;1.00;;;;;;6219525;23;20043;-83
2023/01/20 18:12:12;;;;;;;22.35;10.27;;;-2.50;1.00;;;;;;6224755;23;20036;-85
2023/01/20 18:15:25;;;;;;;22.05;9.52;;;-2.60;1.00;;;;;;6216527;23;20021;-84
2023/01/20 18:18:12;;;;;;;19.70;9.15;;;-2.60;1.00;;;;;;6217730;23;20082;-84
2023/01/20 18:21:14;;;;;;;14.57;8.27;;;-2.70;1.00;;;;;;6219431;23;20438;-85
2023/01/20 18:24:03;;;;;;;15.10;9.07;;;-2.90;1.00;;;;;;6220497;23;20028;-82
2023/01/20 18:26:51;;;;;;;31.38;16.42;;;-2.90;1.00;;;;;;6218293;23;20028;-84
2023/01/20 18:29:38;;;;;;;33.13;18.88;;;-3.00;1.00;;;;;;6219172;23;20032;-84
2023/01/20 18:32:25;;;;;;;38.28;19.92;;;-3.00;12.30;;;;;;6218327;22;20028;-84
2023/01/20 18:35:15;;;;;;;37.38;20.83;;;-3.10;43.50;;;;;;6216726;23;20096;-86
2023/01/20 18:38:02;;;;;;;38.22;21.85;;;-3.30;76.70;;;;;;6219843;23;20358;-84
2023/01/20 18:40:50;;;;;;;30.38;16.73;;;-3.40;99.90;;;;;;6217046;23;20020;-83
2023/01/20 18:43:38;;;;;;;34.78;19.10;;;-3.40;99.90;;;;;;6216390;23;20115;-84
2023/01/20 18:46:26;;;;;;;36.95;18.40;;;-3.50;99.90;;;;;;6216954;23;20097;-83
2023/01/20 18:49:16;;;;;;;46.95;23.52;;;-3.70;99.90;;;;;;6220303;23;20037;-84
2023/01/20 18:52:06;;;;;;;51.22;24.27;;;-3.70;99.90;;;;;;6220788;23;20140;-84
2023/01/20 18:54:55;;;;;;;38.58;19.48;;;-3.90;99.90;;;;;;6223420;23;20099;-84
2023/01/20 18:57:42;;;;;;;29.73;16.95;;;-3.90;99.90;;;;;;6225258;23;20089;-86
2023/01/20 19:00:29;;;;;;;35.17;15.65;;;-3.90;1.00;;;;;;6232260;23;20052;-84
2023/01/20 19:03:19;;;;;;;24.15;11.85;;;-4.00;78.30;;;;;;6232416;23;20031;-85
2023/01/20 19:06:14;;;;;;;19.25;11.32;;;-4.00;99.90;;;;;;6223533;23;20024;-84
2023/01/20 19:09:04;;;;;;;26.63;15.43;;;-4.00;99.90;;;;;;6223299;23;20028;-87
2023/01/20 19:11:52;;;;;;;31.08;17.38;;;-4.10;99.90;;;;;;6219331;23;20025;-85
2023/01/20 19:14:40;;;;;;;31.40;15.60;;;-4.10;99.90;;;;;;6220761;23;20039;-85
2023/01/20 19:17:29;;;;;;;38.03;17.88;;;-4.10;99.90;;;;;;6221852;23;20064;-84
2023/01/20 19:20:17;;;;;;;15.55;9.30;;;-4.10;99.90;;;;;;6239978;23;20020;-84
2023/01/20 19:23:04;;;;;;;19.05;8.93;;;-4.00;1.00;;;;;;6228728;23;20078;-85
2023/01/20 19:25:59;;;;;;;16.60;9.13;;;-4.00;1.00;;;;;;6225650;23;20115;-86
2023/01/20 19:28:59;;;;;;;15.75;8.85;;;-3.90;99.90;;;;;;6234312;23;20024;-87
2023/01/20 19:31:48;;;;;;;16.70;9.27;;;-3.90;99.90;;;;;;6257805;23;20078;-86
2023/01/20 19:34:35;;;;;;;17.73;9.95;;;-4.10;99.90;;;;;;6259541;23;20026;-85
2023/01/20 19:37:23;;;;;;;15.88;9.45;;;-4.20;99.90;;;;;;6236188;23;20023;-86
2023/01/20 19:40:15;;;;;;;23.20;12.13;;;-4.30;1.00;;;;;;6241790;23;20050;-82
2023/01/20 19:43:02;;;;;;;24.27;12.50;;;-4.30;1.00;;;;;;6267584;23;20023;-84
2023/01/20 19:45:52;;;;;;;17.70;10.63;;;-4.30;1.00;;;;;;6243916;23;20024;-84
2023/01/20 19:48:41;;;;;;;18.17;9.77;;;-4.20;99.90;;;;;;6248763;23;20048;-86
2023/01/20 19:51:30;;;;;;;23.02;12.38;;;-4.10;99.90;;;;;;6225511;23;20043;-86
2023/01/20 19:54:23;;;;;;;28.80;12.27;;;-4.10;99.90;;;;;;6227453;23;20023;-85
2023/01/20 19:57:34;;;;;;;19.63;10.85;;;-3.90;99.90;;;;;;6235400;23;20074;-86
2023/01/20 20:00:21;;;;;;;20.23;11.27;;;-3.60;99.90;;;;;;6227788;23;20359;-84
2023/01/20 20:03:08;;;;;;;27.65;12.07;;;-3.50;99.90;;;;;;6250031;22;20035;-84
2023/01/20 20:06:01;;;;;;;23.60;11.30;;;-3.50;36.10;;;;;;6245690;23;20023;-85
2023/01/20 20:08:50;;;;;;;16.95;10.73;;;-3.40;1.00;;;;;;6224882;23;20408;-83
2023/01/20 20:11:40;;;;;;;18.98;10.95;;;-3.20;1.00;;;;;;6226520;23;20024;-85
2023/01/20 20:14:30;;;;;;;26.13;11.45;;;-3.10;1.00;;;;;;6248135;22;20078;-85
2023/01/20 20:17:41;;;;;;;40.75;20.10;;;-3.10;99.90;;;;;;6229849;23;20012;-85
2023/01/20 20:20:28;;;;;;;34.75;18.10;;;-3.20;99.90;;;;;;6225423;23;20028;-84
2023/01/20 20:23:21;;;;;;;29.55;16.45;;;-3.30;99.90;;;;;;6248238;22;20024;-85
2023/01/20 20:26:11;;;;;;;25.00;14.20;;;-3.40;99.90;;;;;;6244976;23;20058;-86
2023/01/20 20:29:00;;;;;;;31.60;16.38;;;-3.60;99.90;;;;;;6222573;23;20062;-84
2023/01/20 20:31:47;;;;;;;34.92;15.73;;;-3.70;99.90;;;;;;6247212;22;20024;-85
2023/01/20 20:34:34;;;;;;;29.55;16.40;;;-3.90;99.90;;;;;;6244915;23;20055;-85
2023/01/20 20:37:22;;;;;;;30.38;14.93;;;-4.00;99.90;;;;;;6245389;23;20403;-85
2023/01/20 20:40:10;;;;;;;31.58;15.88;;;-4.00;99.90;;;;;;6246993;22;20020;-84
2023/01/20 20:43:00;;;;;;;30.02;15.55;;;-4.00;1.00;;;;;;6247855;22;20027;-85
2023/01/20 20:45:47;;;;;;;29.85;16.23;;;-4.10;1.00;;;;;;6245342;23;20024;-86
2023/01/20 20:48:40;;;;;;;24.13;13.65;;;-4.10;90.50;;;;;;6224878;23;20067;-85
2023/01/20 20:51:30;;;;;;;25.75;12.93;;;-4.10;99.90;;;;;;6223803;23;20051;-87
2023/01/20 20:54:21;;;;;;;25.92;14.43;;;-4.10;99.90;;;;;;6246833;23;20024;-85
2023/01/20 20:57:08;;;;;;;25.02;14.57;;;-4.00;99.90;;;;;;6248248;22;20024;-86
2023/01/20 20:59:56;;;;;;;26.73;13.80;;;-4.00;1.00;;;;;;6226592;22;20420;-86
2023/01/20 21:02:47;;;;;;;44.45;22.35;;;-3.80;1.00;;;;;;6247923;22;20058;-87
2023/01/20 21:05:35;;;;;;;49.60;25.48;;;-3.70;99.90;;;;;;6247768;22;20518;-86
2023/01/20 21:08:25;;;;;;;39.47;22.67;;;-3.70;99.90;;;;;;6246690;23;20038;-87
2023/01/20 21:11:16;;;;;;;26.02;15.85;;;-3.60;99.90;;;;;;6224892;23;20488;-85
2023/01/20 21:14:04;;;;;;;22.45;12.55;;;-3.60;99.90;;;;;;6226865;23;20070;-86
2023/01/20 21:16:53;;;;;;;22.42;11.60;;;-3.70;99.90;;;;;;6224721;23;20032;-88
2023/01/20 21:55:50;;;;;;;23.10;12.40;;;-3.30;99.90;;;;;;6198580;23;20108;-86
2023/01/20 21:58:37;;;;;;;25.20;12.18;;;-3.20;99.90;;;;;;6201326;23;20029;-88
2023/01/20 22:01:28;;;;;;;25.52;12.85;;;-3.00;99.90;;;;;;6192568;23;20048;-91
2023/01/20 22:04:19;;;;;;;25.15;12.52;;;-3.00;99.90;;;;;;6167550;23;20112;-88
2023/01/20 22:07:07;;;;;;;19.75;10.07;;;-3.00;99.90;;;;;;6186794;23;20039;-86
2023/01/20 22:09:55;;;;;;;20.65;10.52;;;-2.90;75.90;;;;;;6187427;23;20036;-87
2023/01/20 22:12:44;;;;;;;15.93;9.45;;;-2.80;1.00;;;;;;6188547;23;20421;-87
2023/01/20 22:15:32;;;;;;;16.33;10.05;;;-2.80;1.00;;;;;;6189792;23;20021;-86
2023/01/20 22:18:21;;;;;;;19.02;9.93;;;-2.80;1.00;;;;;;6188197;23;20036;-86
2023/01/20 22:21:11;;;;;;;33.22;16.50;;;-3.00;1.00;;;;;;6187629;23;20021;-87
2023/01/20 22:24:11;;;;;;;29.00;15.35;;;-3.10;1.00;;;;;;6168893;23;20108;-90
2023/01/20 22:27:01;;;;;;;22.45;12.10;;;-3.20;1.00;;;;;;6188456;23;20083;-87
2023/01/20 22:29:51;;;;;;;29.15;13.93;;;-3.30;99.90;;;;;;6166649;23;20039;-87
2023/01/20 22:32:38;;;;;;;29.15;13.95;;;-3.40;99.90;;;;;;6189132;23;20017;-88
2023/01/20 22:35:26;;;;;;;23.15;12.45;;;-3.50;1.00;;;;;;6189764;23;20036;-88
2023/01/20 22:38:16;;;;;;;27.17;15.48;;;-3.50;1.00;;;;;;6173614;22;20029;-87
2023/01/20 22:41:08;;;;;;;23.73;12.85;;;-3.60;1.00;;;;;;6171274;23;20033;-88
2023/01/20 22:43:58;;;;;;;26.95;13.88;;;-3.80;1.00;;;;;;6166283;23;20658;-88
2023/01/20 22:46:48;;;;;;;24.02;13.48;;;-3.90;1.00;;;;;;6188223;23;20024;-87
2023/01/20 22:49:35;;;;;;;22.27;12.93;;;-4.10;1.00;;;;;;6192827;23;20079;-89
2023/01/20 22:52:23;;;;;;;27.42;13.80;;;-4.20;99.90;;;;;;6192159;23;20032;-87
2023/01/20 22:55:14;;;;;;;25.83;13.63;;;-4.30;99.90;;;;;;6188304;23;20029;-88
2023/01/20 22:58:05;;;;;;;25.35;13.32;;;-4.40;99.90;;;;;;6187036;23;20072;-87
2023/01/20 23:00:53;;;;;;;25.40;14.15;;;-4.50;99.90;;;;;;6188429;23;20032;-86
2023/01/20 23:03:40;;;;;;;22.88;13.88;;;-4.50;1.00;;;;;;6186936;23;20033;-86
2023/01/20 23:06:31;;;;;;;25.60;13.63;;;-4.70;29.50;;;;;;6187412;23;20029;-86
2023/01/20 23:09:19;;;;;;;24.05;13.50;;;-4.70;99.90;;;;;;6187754;23;20053;-89
2023/01/20 23:12:10;;;;;;;28.92;14.77;;;-4.70;99.90;;;;;;6186692;23;20039;-88
2023/01/20 23:14:57;;;;;;;23.27;12.75;;;-4.80;1.00;;;;;;6187772;23;20032;-87
2023/01/20 23:17:49;;;;;;;35.10;14.30;;;-4.80;99.90;;;;;;6188450;23;20021;-89
2023/01/20 23:20:37;;;;;;;25.90;14.70;;;-4.70;99.90;;;;;;6189385;23;20021;-86
2023/01/20 23:23:25;;;;;;;25.02;13.10;;;-4.70;99.90;;;;;;6188056;23;20031;-89
2023/01/20 23:26:17;;;;;;;25.60;15.25;;;-4.80;1.00;;;;;;6194832;23;20030;-88
2023/01/20 23:29:06;;;;;;;22.58;12.63;;;-4.80;30.90;;;;;;6203431;23;20016;-87